createdAt,value
2022-08-17T04:51:54.609Z,13.55
2022-08-17T04:54:23.794Z,15.95
2022-08-17T04:56:50.495Z,13.87
2022-08-17T04:59:19.690Z,14.45
2022-08-17T05:01:48.584Z,15.35
2022-08-17T05:04:33.764Z,14.20
2022-08-17T05:07:02.104Z,14.55
2022-08-17T05:09:29.012Z,11.90
2022-08-17T05:11:56.307Z,12.80
2022-08-17T05:14:33.606Z,11.65
2022-08-17T05:17:01.178Z,12.18
2022-08-17T05:19:28.330Z,11.85
2022-08-17T05:21:54.842Z,15.53
2022-08-17T05:24:39.864Z,12.88
2022-08-17T05:27:08.327Z,12.10
2022-08-17T05:29:35.705Z,12.80
2022-08-17T05:32:38.614Z,13.18
2022-08-17T05:35:00.791Z,12.40
2022-08-17T05:37:27.587Z,12.52
2022-08-17T05:39:54.510Z,14.55
2022-08-17T05:42:21.487Z,14.52
2022-08-17T05:44:48.067Z,16.92
2022-08-17T05:47:14.598Z,13.37
2022-08-17T05:49:41.149Z,11.15
2022-08-17T05:52:40.023Z,13.25
2022-08-17T05:55:20.306Z,12.80
2022-08-17T05:57:56.111Z,15.77
2022-08-17T06:00:42.083Z,16.40
2022-08-17T06:03:23.655Z,15.82
2022-08-17T06:06:01.229Z,14.73
2022-08-17T06:08:27.711Z,13.80
2022-08-17T06:11:12.917Z,12.95
2022-08-17T06:14:09.491Z,13.40
2022-08-17T06:16:39.741Z,13.45
2022-08-17T06:19:15.080Z,13.68
2022-08-17T06:21:44.990Z,15.77
2022-08-17T06:24:29.878Z,14.45
2022-08-17T06:27:03.840Z,12.17
2022-08-17T06:29:50.966Z,12.80
2022-08-17T06:32:17.488Z,13.10
2022-08-17T06:34:45.487Z,9.80
2022-08-17T06:37:27.233Z,11.63
2022-08-17T06:40:22.496Z,9.10
2022-08-17T06:43:21.371Z,10.75
2022-08-17T06:45:57.942Z,14.50
2022-08-17T06:49:01.412Z,15.32
2022-08-17T06:51:52.700Z,14.82
2022-08-17T06:54:28.485Z,11.43
2022-08-17T06:57:25.356Z,14.07
2022-08-17T07:00:01.981Z,12.95
2022-08-17T07:02:53.058Z,9.98
2022-08-17T07:05:22.658Z,9.55
2022-08-17T07:08:04.904Z,9.70
2022-08-17T07:11:01.012Z,8.75
2022-08-17T07:13:38.411Z,8.93
2022-08-17T07:16:14.977Z,12.93
2022-08-17T07:18:41.937Z,8.82
2022-08-17T07:21:19.110Z,9.50
2022-08-17T07:24:30.037Z,10.45
2022-08-17T07:27:12.918Z,11.93
2022-08-17T07:29:44.493Z,11.13
2022-08-17T07:32:12.301Z,11.23
2022-08-17T07:35:05.066Z,11.47
2022-08-17T07:37:33.301Z,11.35
2022-08-17T07:40:15.235Z,11.13
2022-08-17T07:42:46.673Z,9.98
2022-08-17T07:45:34.461Z,9.77
2022-08-17T07:48:19.295Z,10.77
2022-08-17T07:50:49.369Z,13.38
2022-08-17T07:53:19.400Z,9.73
2022-08-17T07:55:45.959Z,10.07
2022-08-17T07:58:20.811Z,9.90
2022-08-17T08:01:12.090Z,8.63
2022-08-17T08:03:41.610Z,11.27
2022-08-17T08:06:20.813Z,10.05
2022-08-17T08:08:52.143Z,8.77
2022-08-17T08:11:38.260Z,10.43
2022-08-17T08:14:38.563Z,11.53
2022-08-17T08:17:09.359Z,8.70
2022-08-17T08:19:36.466Z,10.82
2022-08-17T08:22:07.660Z,11.38
2022-08-17T08:24:55.866Z,11.77
2022-08-17T08:27:42.942Z,11.23
2022-08-17T08:30:14.310Z,12.70
2022-08-17T08:32:42.782Z,11.93
2022-08-17T08:35:17.604Z,14.95
2022-08-17T08:37:50.058Z,12.00
2022-08-17T08:40:41.265Z,11.27
2022-08-17T08:43:36.281Z,13.50
2022-08-17T08:46:19.647Z,11.55
2022-08-17T08:48:56.476Z,10.45
2022-08-17T08:51:49.334Z,12.95
2022-08-17T08:54:46.094Z,10.73
2022-08-17T08:57:34.315Z,12.15
2022-08-17T09:00:23.090Z,11.52
2022-08-17T09:03:52.451Z,10.00
2022-08-17T09:06:57.858Z,12.82
2022-08-17T09:09:33.526Z,11.60
2022-08-17T09:12:24.527Z,10.90
2022-08-17T09:14:57.158Z,12.68
2022-08-17T09:18:14.921Z,10.80
2022-08-17T09:20:57.753Z,9.73
2022-08-17T09:23:37.852Z,8.53
2022-08-17T09:26:23.762Z,10.80
2022-08-17T09:28:53.532Z,9.50
2022-08-17T09:31:55.449Z,11.15
2022-08-17T09:34:38.926Z,10.32
2022-08-17T09:37:19.405Z,10.33
2022-08-17T09:40:09.551Z,10.25
2022-08-17T09:42:43.560Z,8.82
2022-08-17T09:45:28.357Z,8.02
2022-08-17T09:47:57.815Z,9.63
2022-08-17T09:51:10.898Z,8.53
2022-08-17T09:53:38.785Z,9.68
2022-08-17T09:56:11.492Z,7.88
2022-08-17T09:59:17.115Z,8.00
2022-08-17T10:01:50.480Z,13.40
2022-08-17T10:04:49.906Z,10.30
2022-08-17T10:07:28.586Z,9.60
2022-08-17T10:10:14.333Z,8.25
2022-08-17T10:13:03.018Z,8.98
2022-08-17T10:15:52.200Z,7.20
2022-08-17T10:18:46.747Z,7.23
2022-08-17T10:21:36.374Z,8.35
2022-08-17T10:24:39.520Z,8.88
2022-08-17T10:27:42.889Z,7.32
2022-08-17T10:30:10.883Z,7.53
2022-08-17T10:32:46.822Z,6.63
2022-08-17T10:35:33.890Z,7.93
2022-08-17T10:38:15.357Z,6.75
2022-08-17T10:40:54.462Z,7.75
2022-08-17T10:43:36.878Z,8.23
2022-08-17T10:46:31.600Z,7.10
2022-08-17T10:49:24.517Z,8.70
2022-08-17T10:51:54.385Z,7.05
2022-08-17T10:54:37.415Z,8.60
2022-08-17T10:57:33.161Z,7.85
2022-08-17T11:00:01.637Z,7.53
2022-08-17T11:03:05.204Z,8.20
2022-08-17T11:06:12.600Z,10.13
2022-08-17T11:08:59.298Z,7.53
2022-08-17T11:11:35.940Z,7.38
2022-08-17T11:14:04.519Z,7.70
2022-08-17T11:16:52.079Z,9.65
2022-08-17T11:19:49.742Z,10.32
2022-08-17T11:22:33.477Z,9.13
2022-08-17T11:25:16.294Z,8.25
2022-08-17T11:27:43.327Z,6.70
2022-08-17T11:30:15.121Z,7.05
2022-08-17T11:32:54.589Z,10.77
2022-08-17T11:35:21.572Z,9.10
2022-08-17T11:38:10.851Z,6.50
2022-08-17T11:41:09.930Z,9.37
2022-08-17T11:44:07.238Z,9.30
2022-08-17T11:47:14.267Z,7.93
2022-08-17T11:50:23.472Z,9.55
2022-08-17T11:52:53.665Z,8.40
2022-08-17T11:55:35.839Z,8.20
2022-08-17T11:58:23.706Z,7.47
2022-08-17T12:00:56.357Z,9.27
2022-08-17T12:03:32.114Z,7.45
2022-08-17T12:06:17.510Z,7.43
2022-08-17T12:08:51.051Z,7.10
2022-08-17T12:11:55.460Z,8.00
2022-08-17T12:15:08.342Z,6.88
2022-08-17T12:17:40.118Z,11.02
2022-08-17T12:20:24.030Z,8.13
2022-08-17T12:23:10.050Z,8.40
2022-08-17T12:25:45.523Z,8.50
2022-08-17T12:28:23.885Z,7.55
2022-08-17T12:30:52.118Z,8.20
2022-08-17T12:33:25.360Z,5.95
2022-08-17T12:36:04.158Z,7.93
2022-08-17T12:38:34.613Z,7.90
2022-08-17T12:41:21.925Z,6.95
2022-08-17T12:44:14.693Z,7.20
2022-08-17T12:47:19.365Z,8.77
2022-08-17T12:49:50.618Z,9.60
2022-08-17T12:52:19.825Z,8.02
2022-08-17T12:54:58.891Z,8.20
2022-08-17T12:57:32.375Z,7.90
2022-08-17T13:00:22.111Z,7.22
2022-08-17T13:02:52.225Z,6.80
2022-08-17T13:05:30.253Z,7.47
2022-08-17T13:07:59.113Z,7.30
2022-08-17T13:10:33.154Z,8.02
2022-08-17T13:13:06.007Z,7.00
2022-08-17T13:15:44.630Z,10.10
2022-08-17T13:18:30.186Z,8.25
2022-08-17T13:20:58.888Z,7.07
2022-08-17T13:23:26.358Z,6.90
2022-08-17T13:26:00.474Z,8.10
2022-08-17T13:28:35.801Z,7.83
2022-08-17T13:31:30.358Z,6.55
2022-08-17T13:35:11.752Z,9.13
2022-08-17T13:37:35.361Z,9.27
2022-08-17T13:40:05.045Z,8.25
2022-08-17T13:42:53.057Z,8.53
2022-08-17T13:45:36.114Z,9.68
2022-08-17T13:48:13.740Z,8.80
2022-08-17T13:50:48.192Z,6.97
2022-08-17T13:53:25.277Z,5.97
2022-08-17T13:55:55.181Z,6.83
2022-08-17T13:58:31.824Z,6.47
2022-08-17T14:00:58.967Z,6.80
2022-08-17T14:03:25.418Z,8.38
2022-08-17T14:05:52.444Z,7.97
2022-08-17T14:08:20.093Z,7.67
2022-08-17T14:10:57.175Z,7.63
2022-08-17T14:13:23.998Z,8.45
2022-08-17T14:15:55.636Z,7.15
2022-08-17T14:18:54.269Z,6.80
2022-08-17T14:21:09.875Z,10.60
2022-08-17T14:23:37.119Z,7.45
2022-08-17T14:26:03.897Z,11.10
2022-08-17T14:28:30.454Z,7.22
2022-08-17T14:30:58.657Z,7.00
2022-08-17T14:33:25.300Z,7.27
2022-08-17T14:35:53.441Z,5.80
2022-08-17T14:38:20.593Z,7.72
2022-08-17T14:40:47.958Z,6.65
2022-08-17T14:43:15.818Z,8.70
2022-08-17T14:45:43.065Z,7.13
2022-08-17T14:48:09.885Z,6.15
2022-08-17T14:50:38.950Z,5.82
2022-08-17T14:53:07.506Z,6.40
2022-08-17T14:55:34.814Z,6.50
2022-08-17T14:58:01.629Z,6.30
2022-08-17T15:00:28.483Z,7.85
2022-08-17T15:02:58.181Z,8.57
2022-08-17T15:05:27.467Z,6.72
2022-08-17T15:07:54.053Z,10.10
2022-08-17T15:10:21.171Z,6.47
2022-08-17T15:12:47.802Z,7.28
2022-08-17T15:15:16.634Z,5.97
2022-08-17T15:17:45.987Z,9.68
2022-08-17T15:20:15.965Z,7.32
2022-08-17T15:22:43.454Z,10.67
2022-08-17T15:25:10.750Z,6.97
2022-08-17T15:27:37.544Z,7.32
2022-08-17T15:30:05.837Z,7.50
2022-08-17T15:32:37.993Z,6.85
2022-08-17T15:35:05.902Z,7.20
2022-08-17T15:37:32.497Z,8.07
2022-08-17T15:40:01.246Z,6.30
2022-08-17T15:42:27.929Z,8.15
2022-08-17T15:44:55.173Z,6.32
2022-08-17T15:47:22.106Z,6.80
2022-08-17T15:49:48.805Z,6.80
2022-08-17T15:52:26.750Z,6.15
2022-08-17T15:54:59.541Z,6.75
2022-08-17T15:57:27.267Z,7.85
2022-08-17T15:59:58.411Z,7.07
2022-08-17T16:03:45.811Z,6.05
2022-08-17T16:05:17.747Z,6.97
2022-08-17T16:07:46.670Z,8.38
2022-08-17T16:10:18.303Z,6.38
2022-08-17T16:12:46.642Z,6.27
2022-08-17T16:15:13.797Z,7.00
2022-08-17T16:17:43.921Z,7.32
2022-08-17T16:20:20.344Z,7.45
2022-08-17T16:22:48.687Z,6.30
2022-08-17T16:25:51.913Z,9.47
2022-08-17T16:28:11.198Z,6.40
2022-08-17T16:30:38.234Z,6.53
2022-08-17T16:33:05.372Z,6.93
2022-08-17T16:35:31.909Z,7.45
2022-08-17T16:37:58.767Z,6.90
2022-08-17T16:40:27.446Z,7.30
2022-08-17T16:42:55.154Z,6.85
2022-08-17T16:45:27.365Z,6.75
2022-08-17T16:47:54.973Z,7.07
2022-08-17T16:50:23.016Z,7.03
2022-08-17T16:52:50.230Z,6.90
2022-08-17T16:55:21.375Z,7.55
2022-08-17T16:57:50.445Z,7.70
2022-08-17T17:00:19.301Z,6.30
2022-08-17T17:02:47.592Z,6.87
2022-08-17T17:05:32.517Z,7.65
2022-08-17T17:08:04.015Z,6.75
2022-08-17T17:10:43.392Z,8.65
2022-08-17T17:13:32.749Z,7.80
2022-08-17T17:16:14.279Z,7.33
2022-08-17T17:19:15.395Z,6.70
2022-08-17T17:21:51.913Z,9.30
2022-08-17T17:24:44.926Z,8.02
2022-08-17T17:27:29.402Z,7.78
2022-08-17T17:30:15.518Z,5.87
2022-08-17T17:32:50.131Z,8.75
2022-08-17T17:35:23.373Z,8.23
2022-08-17T17:37:52.009Z,7.95
2022-08-17T17:40:24.786Z,8.18
2022-08-17T17:43:05.444Z,7.07
2022-08-17T17:45:44.546Z,6.85
2022-08-17T17:48:11.738Z,8.68
2022-08-17T17:50:47.754Z,10.45
2022-08-17T17:53:56.711Z,9.60
2022-08-17T17:56:45.338Z,8.27
2022-08-17T17:59:32.988Z,8.85
2022-08-17T18:02:44.465Z,10.52
2022-08-17T18:05:39.431Z,9.73
2022-08-17T18:08:34.728Z,8.63
2022-08-17T18:11:24.179Z,9.80
2022-08-17T18:14:25.382Z,8.05
2022-08-17T18:16:56.123Z,9.07
2022-08-17T18:19:25.538Z,8.30
2022-08-17T18:22:07.686Z,7.85
2022-08-17T18:24:42.151Z,9.77
2022-08-17T18:27:24.625Z,7.85
2022-08-17T18:29:55.858Z,8.00
2022-08-17T18:32:32.874Z,8.13
2022-08-17T18:35:27.595Z,8.07
2022-08-17T18:38:20.342Z,8.87
2022-08-17T18:40:50.970Z,7.38
2022-08-17T18:43:26.556Z,8.20
2022-08-17T18:45:55.836Z,8.00
2022-08-17T18:48:38.208Z,10.07
2022-08-17T18:51:26.745Z,7.67
2022-08-17T18:54:19.015Z,9.27
2022-08-17T18:57:02.018Z,7.25
